createdAt,value
2022-09-23T00:00:15.268Z,6.20
2022-09-23T00:02:55.444Z,5.88
2022-09-23T00:05:42.237Z,6.55
2022-09-23T00:08:22.352Z,5.63
2022-09-23T00:11:14.204Z,6.95
2022-09-23T00:14:03.198Z,6.72
2022-09-23T00:16:50.322Z,4.95
2022-09-23T00:19:37.184Z,5.55
2022-09-23T00:22:17.567Z,4.75
2022-09-23T00:25:04.285Z,4.72
2022-09-23T00:27:58.173Z,5.97
2022-09-23T00:30:48.337Z,6.22
2022-09-23T00:33:29.901Z,6.43
2022-09-23T00:36:18.188Z,7.32
2022-09-23T00:39:05.273Z,8.27
2022-09-23T00:41:45.613Z,8.80
2022-09-23T00:44:55.211Z,8.80
2022-09-23T00:47:50.164Z,8.90
2022-09-23T00:53:22.627Z,8.32
2022-09-23T00:56:17.183Z,8.52
2022-09-23T01:02:01.232Z,6.65
2022-09-23T01:04:42.265Z,6.32
2022-09-23T01:07:29.200Z,6.78
2022-09-23T01:10:16.166Z,5.72
2022-09-23T01:13:09.306Z,5.68
2022-09-23T01:15:56.157Z,5.75
2022-09-23T01:19:17.129Z,5.07
2022-09-23T01:22:27.138Z,5.35
2022-09-23T01:25:51.153Z,4.07
2022-09-23T01:28:38.236Z,4.47
2022-09-23T01:31:45.150Z,4.82
2022-09-23T01:34:36.717Z,4.35
2022-09-23T01:37:37.085Z,4.03
2022-09-23T01:40:49.174Z,3.75
2022-09-23T01:43:47.948Z,3.78
2022-09-23T01:46:44.090Z,3.28
2022-09-23T01:49:43.161Z,3.78
2022-09-23T01:53:03.084Z,3.70
2022-09-23T01:55:50.117Z,3.60
2022-09-23T01:58:44.106Z,4.22
2022-09-23T02:01:35.246Z,3.45
2022-09-23T02:04:45.105Z,2.53
2022-09-23T02:08:12.113Z,2.53
2022-09-23T02:11:16.044Z,2.65
2022-09-23T02:14:22.124Z,2.50
2022-09-23T02:17:08.544Z,2.38
2022-09-23T02:20:04.069Z,2.92
2022-09-23T02:28:35.087Z,4.90
2022-09-23T02:31:37.084Z,4.40
2022-09-23T02:34:23.252Z,4.97
2022-09-23T02:37:13.067Z,3.65
2022-09-23T02:40:04.254Z,4.60
2022-09-23T02:43:24.065Z,4.75
2022-09-23T02:46:04.158Z,4.68
2022-09-23T02:49:07.055Z,4.93
2022-09-23T02:51:54.038Z,4.53
2022-09-23T02:54:35.439Z,4.28
2022-09-23T02:57:22.000Z,3.65
2022-09-23T03:00:02.506Z,3.55
2022-09-23T03:03:10.038Z,3.53
2022-09-23T03:06:01.975Z,3.55
2022-09-23T03:26:01.584Z,2.80
2022-09-23T03:28:51.581Z,2.75
2022-09-23T03:31:38.642Z,2.60
2022-09-23T03:34:31.581Z,2.50
2022-09-23T03:37:22.734Z,2.15
2022-09-23T03:40:30.641Z,2.78
2022-09-23T03:43:12.775Z,2.20
2022-09-23T03:46:04.608Z,3.88
2022-09-23T03:48:52.554Z,2.35
2022-09-23T03:51:32.927Z,1.92
2022-09-23T03:54:19.550Z,2.03
2022-09-23T03:57:07.547Z,2.20
2022-09-23T03:59:47.631Z,3.22
2022-09-23T04:02:34.612Z,3.75
2022-09-23T04:05:16.626Z,3.78
2022-09-23T04:08:03.541Z,3.35
2022-09-23T04:10:55.048Z,3.92
2022-09-23T04:13:41.510Z,3.70
2022-09-23T04:16:28.569Z,3.83
2022-09-23T04:19:13.052Z,3.50
2022-09-23T04:21:59.486Z,3.25
2022-09-23T04:24:53.498Z,4.20
2022-09-23T04:27:40.514Z,4.78
2022-09-23T04:30:20.694Z,5.15
2022-09-23T04:33:07.486Z,5.95
2022-09-23T04:35:48.593Z,7.47
2022-09-23T04:38:35.449Z,7.68
2022-09-23T04:41:16.622Z,8.27
2022-09-23T04:44:04.497Z,7.20
2022-09-23T04:46:47.595Z,7.00
2022-09-23T04:49:34.440Z,7.32
2022-09-23T04:52:21.506Z,7.78
2022-09-23T04:55:11.175Z,7.38
2022-09-23T04:57:58.467Z,7.15
2022-09-23T05:00:38.953Z,7.65
2022-09-23T05:03:25.446Z,7.68
2022-09-23T05:06:06.236Z,6.93
2022-09-23T05:08:55.440Z,6.10
2022-09-23T05:11:42.410Z,5.00
2022-09-23T05:14:29.469Z,4.45
2022-09-23T05:17:16.436Z,4.10
2022-09-23T05:19:57.962Z,3.25
2022-09-23T05:22:44.456Z,2.67
2022-09-23T05:25:38.566Z,2.75
2022-09-23T05:28:20.153Z,2.80
2022-09-23T05:31:06.466Z,2.75
2022-09-23T05:33:59.451Z,2.45
2022-09-23T05:36:42.529Z,3.28
2022-09-23T05:39:29.416Z,2.50
2022-09-23T05:42:16.388Z,4.43
2022-09-23T05:44:56.803Z,2.75
2022-09-23T05:47:43.406Z,3.40
2022-09-23T05:50:30.368Z,4.25
2022-09-23T05:53:10.505Z,3.95
2022-09-23T05:55:58.384Z,5.00
2022-09-23T05:58:38.521Z,5.88
2022-09-23T06:01:28.488Z,5.32
2022-09-23T06:04:17.377Z,5.15
2022-09-23T06:07:04.359Z,4.88
2022-09-23T06:09:44.499Z,5.35
2022-09-23T06:12:32.376Z,4.90
2022-09-23T06:15:20.360Z,4.85
2022-09-23T06:18:01.185Z,5.53
2022-09-23T06:20:48.388Z,4.10
2022-09-23T06:23:29.541Z,4.20
2022-09-23T06:26:18.375Z,4.25
2022-09-23T06:28:58.721Z,5.18
2022-09-23T06:31:47.498Z,5.05
2022-09-23T06:34:27.856Z,4.47
2022-09-23T06:37:19.912Z,4.93
2022-09-23T06:40:07.369Z,4.45
2022-09-23T06:42:55.357Z,4.35
2022-09-23T06:45:35.751Z,4.70
2022-09-23T06:48:22.351Z,4.68
2022-09-23T06:51:05.402Z,4.22
2022-09-23T06:53:52.297Z,4.25
2022-09-23T06:56:38.527Z,5.20
2022-09-23T06:59:26.350Z,5.60
2022-09-23T07:02:13.478Z,4.10
2022-09-23T07:04:53.458Z,4.70
2022-09-23T07:07:42.316Z,3.13
2022-09-23T07:10:22.423Z,2.30
2022-09-23T07:13:16.036Z,2.58
2022-09-23T07:16:02.915Z,2.97
2022-09-23T07:18:49.328Z,2.47
2022-09-23T07:21:36.255Z,2.17
2022-09-23T07:24:30.264Z,1.58
2022-09-23T07:27:10.666Z,1.00
2022-09-23T07:29:58.292Z,1.52
2022-09-23T07:32:49.001Z,1.60
2022-09-23T07:35:29.342Z,0.85
2022-09-23T07:38:18.278Z,1.15
2022-09-23T07:41:05.265Z,0.90
2022-09-23T07:43:46.401Z,0.80
2022-09-23T07:46:33.325Z,0.85
2022-09-23T07:49:13.987Z,1.05
2022-09-23T07:52:00.273Z,1.10
2022-09-23T07:54:47.281Z,1.10
2022-09-23T07:57:34.238Z,0.90
2022-09-23T08:00:21.244Z,0.90
2022-09-23T08:03:01.436Z,0.70
2022-09-23T08:05:48.251Z,0.90
2022-09-23T08:08:29.021Z,0.95
2022-09-23T08:11:19.212Z,1.15
2022-09-23T08:14:00.317Z,1.02
2022-09-23T08:16:48.336Z,0.80
2022-09-23T08:19:28.313Z,1.27
2022-09-23T08:22:15.266Z,1.00
2022-09-23T08:25:02.217Z,0.50
2022-09-23T08:27:49.243Z,0.82
2022-09-23T08:30:32.321Z,0.75
2022-09-23T08:33:23.552Z,0.73
2022-09-23T08:36:17.298Z,0.80
2022-09-23T08:41:59.118Z,1.23
2022-09-23T08:45:12.218Z,0.85
2022-09-23T08:48:12.162Z,0.90
2022-09-23T08:51:06.212Z,1.00
2022-09-23T08:56:44.303Z,0.70
2022-09-23T08:59:43.226Z,0.93
2022-09-23T09:02:25.028Z,0.70
2022-09-23T09:05:17.246Z,1.05
2022-09-23T09:08:00.525Z,0.80
2022-09-23T09:10:54.182Z,0.75
2022-09-23T09:13:43.439Z,1.08
2022-09-23T09:16:59.659Z,0.82
2022-09-23T09:19:54.280Z,0.73
2022-09-23T09:23:02.201Z,0.95
2022-09-23T09:26:06.199Z,1.08
2022-09-23T09:29:11.482Z,0.68
2022-09-23T09:32:06.119Z,1.10
2022-09-23T09:34:54.722Z,1.23
2022-09-23T09:37:53.568Z,1.50
2022-09-23T09:40:35.287Z,1.02
2022-09-23T09:43:23.135Z,0.98
2022-09-23T09:46:43.213Z,4.88
2022-09-23T09:49:43.132Z,1.00
2022-09-23T09:52:33.156Z,1.00
2022-09-23T09:55:26.091Z,1.10
2022-09-23T09:58:13.098Z,1.17
2022-09-23T10:01:00.185Z,1.05
2022-09-23T10:03:50.826Z,1.05
2022-09-23T10:06:35.776Z,1.92
2022-09-23T10:09:26.066Z,1.35
2022-09-23T10:12:31.054Z,1.50
2022-09-23T10:18:40.085Z,1.50
2022-09-23T10:21:27.741Z,1.50
2022-09-23T10:24:18.099Z,1.02
2022-09-23T10:27:12.093Z,1.23
2022-09-23T10:30:04.009Z,1.77
2022-09-23T10:32:52.033Z,1.00
2022-09-23T10:35:42.071Z,1.35
2022-09-23T10:38:22.485Z,1.20
2022-09-23T10:41:28.040Z,1.40
2022-09-23T10:44:37.795Z,1.08
2022-09-23T10:47:48.030Z,1.52
2022-09-23T10:50:55.113Z,1.00
2022-09-23T10:53:49.052Z,0.88
2022-09-23T10:56:36.184Z,2.08
2022-09-23T11:00:05.053Z,1.50
2022-09-23T11:03:09.026Z,1.08
2022-09-23T11:06:05.024Z,3.03
2022-09-23T11:09:03.107Z,1.23
2022-09-23T11:12:28.052Z,1.15
2022-09-23T11:15:39.031Z,1.55
2022-09-23T11:18:37.176Z,1.10
2022-09-23T11:21:30.016Z,1.27
2022-09-23T11:24:59.048Z,1.15
2022-09-23T11:27:45.535Z,1.67
2022-09-23T11:30:33.074Z,2.50
2022-09-23T11:33:30.978Z,1.08
2022-09-23T11:36:53.008Z,1.30
2022-09-23T11:39:42.646Z,1.50
2022-09-23T11:42:38.989Z,1.17
2022-09-23T11:45:25.566Z,1.42
2022-09-23T11:48:17.957Z,1.50
2022-09-23T11:51:20.581Z,1.15
2022-09-23T11:54:20.729Z,1.50
2022-09-23T11:57:12.980Z,1.13
2022-09-23T11:59:59.121Z,1.83
2022-09-23T12:03:02.970Z,1.60
2022-09-23T12:06:15.166Z,1.65
2022-09-23T12:09:07.976Z,1.75
2022-09-23T12:11:57.098Z,1.13
2022-09-23T12:15:21.165Z,1.50
2022-09-23T12:18:23.157Z,2.20
2022-09-23T12:21:22.148Z,0.03
2022-09-23T12:24:47.062Z,0.75
2022-09-23T12:27:36.922Z,0.20
2022-09-23T12:30:37.045Z,0.30
2022-09-23T12:33:30.954Z,0.68
2022-09-23T12:36:19.044Z,0.47
2022-09-23T12:39:13.971Z,0.85
2022-09-23T12:44:46.949Z,0.20
2022-09-23T12:47:34.963Z,0.60
2022-09-23T12:50:47.270Z,0.25
2022-09-23T12:53:45.957Z,0.40
2022-09-23T12:56:57.993Z,0.45
2022-09-23T12:59:59.206Z,0.32
2022-09-23T13:03:26.952Z,0.43
2022-09-23T13:06:32.894Z,0.32
2022-09-23T13:09:25.899Z,0.08
2022-09-23T13:12:10.506Z,0.60
2022-09-23T13:15:00.944Z,0.70
2022-09-23T13:17:45.074Z,0.20
2022-09-23T13:20:44.910Z,0.25
2022-09-23T13:23:44.889Z,0.10
2022-09-23T13:26:31.906Z,0.00
2022-09-23T13:29:19.885Z,0.28
2022-09-23T13:32:08.931Z,0.43
2022-09-23T13:34:50.007Z,0.25
2022-09-23T13:37:56.878Z,0.00
2022-09-23T13:40:37.021Z,0.10
2022-09-23T13:43:38.946Z,0.20
2022-09-23T13:46:32.120Z,0.00
2022-09-23T13:49:30.862Z,0.10
2022-09-23T13:52:10.964Z,0.30
2022-09-23T13:54:57.859Z,0.10
2022-09-23T13:57:47.850Z,0.32
2022-09-23T14:00:41.867Z,0.40
2022-09-23T14:03:37.134Z,0.00
2022-09-23T14:06:23.851Z,0.00
2022-09-23T14:09:06.974Z,0.45
2022-09-23T14:11:53.801Z,0.20
2022-09-23T14:14:42.981Z,0.30
2022-09-23T14:17:29.825Z,0.40
2022-09-23T14:20:16.870Z,0.00
2022-09-23T14:23:10.733Z,0.15
2022-09-23T14:25:58.804Z,0.00
2022-09-23T14:28:45.808Z,0.20
2022-09-23T14:31:32.889Z,0.08
2022-09-23T14:34:47.883Z,0.10
2022-09-23T14:37:49.475Z,0.20
2022-09-23T14:40:45.850Z,0.10
2022-09-23T14:43:33.362Z,0.08
2022-09-23T14:46:26.813Z,0.00
2022-09-23T14:49:18.892Z,0.37
2022-09-23T14:52:13.807Z,0.30
2022-09-23T14:54:56.896Z,0.40
2022-09-23T14:57:44.762Z,0.03
2022-09-23T15:00:27.061Z,0.00
2022-09-23T15:03:22.866Z,0.13
2022-09-23T15:06:08.865Z,0.15
2022-09-23T15:08:57.803Z,0.00
2022-09-23T15:27:55.208Z,0.10
2022-09-23T15:30:36.906Z,0.50
2022-09-23T15:33:33.195Z,0.75
2022-09-23T15:36:23.131Z,0.10
2022-09-23T15:39:18.161Z,0.20
2022-09-23T15:42:06.185Z,0.40
2022-09-23T15:44:46.316Z,0.50
2022-09-23T15:47:33.138Z,0.73
2022-09-23T15:50:13.268Z,0.50
2022-09-23T15:53:00.140Z,0.20
2022-09-23T15:55:47.172Z,0.50
2022-09-23T15:58:34.279Z,1.33
2022-09-23T16:01:38.222Z,2.58
2022-09-23T16:04:18.601Z,2.78
2022-09-23T16:07:06.100Z,8.30
2022-09-23T16:09:46.671Z,7.90
2022-09-23T16:12:33.190Z,7.90
2022-09-23T16:15:17.046Z,5.63
2022-09-23T16:18:04.140Z,5.40
2022-09-23T16:20:46.425Z,5.78
2022-09-23T16:23:41.147Z,5.00
2022-09-23T16:29:19.137Z,4.18
2022-09-23T16:32:01.094Z,3.80
2022-09-23T16:34:48.115Z,3.65
2022-09-23T16:37:28.531Z,4.65
2022-09-23T16:40:16.168Z,4.53
2022-09-23T16:42:58.427Z,5.20
2022-09-23T16:45:45.215Z,6.10
2022-09-23T16:48:25.734Z,6.97
2022-09-23T16:51:17.120Z,6.68
2022-09-23T16:53:59.447Z,6.82
2022-09-23T16:56:46.073Z,6.57
2022-09-23T16:59:53.113Z,7.82
2022-09-23T17:02:52.030Z,8.45
2022-09-23T17:05:39.044Z,7.93
2022-09-23T17:08:27.080Z,6.50
2022-09-23T17:11:08.915Z,6.22
2022-09-23T17:13:57.084Z,6.70
2022-09-23T17:16:44.160Z,6.43
2022-09-23T17:19:24.187Z,7.53
2022-09-23T17:22:11.074Z,8.10
2022-09-23T17:24:51.155Z,7.95
2022-09-23T17:27:39.090Z,8.32
2022-09-23T17:30:26.027Z,9.40
2022-09-23T17:33:06.495Z,8.57
2022-09-23T17:35:53.775Z,8.45
2022-09-23T17:38:40.213Z,7.78
2022-09-23T17:41:21.065Z,7.72
2022-09-23T17:44:01.736Z,8.05
2022-09-23T17:46:48.071Z,7.65
2022-09-23T17:49:29.964Z,9.23
2022-09-23T17:52:17.972Z,7.18
2022-09-23T17:55:06.014Z,7.40
2022-09-23T17:57:53.021Z,7.30
2022-09-23T18:00:40.164Z,7.82
2022-09-23T18:03:21.001Z,7.10
2022-09-23T18:06:08.384Z,6.43
2022-09-23T18:08:55.999Z,8.80
2022-09-23T18:11:39.158Z,6.85
2022-09-23T18:14:35.065Z,6.75
2022-09-23T18:17:22.973Z,5.63
2022-09-23T18:20:03.473Z,5.40
2022-09-23T18:22:50.114Z,4.85
2022-09-23T18:25:39.223Z,5.00
2022-09-23T18:28:25.977Z,6.53
2022-09-23T18:31:12.983Z,4.97
2022-09-23T18:34:02.005Z,6.15
2022-09-23T18:36:42.081Z,5.47
2022-09-23T18:39:28.994Z,6.53
2022-09-23T18:42:15.975Z,7.15
2022-09-23T18:44:57.205Z,6.57
2022-09-23T18:48:01.968Z,7.65
2022-09-23T18:50:43.999Z,6.68
2022-09-23T18:53:30.954Z,6.47
2022-09-23T18:56:13.421Z,7.50
2022-09-23T18:59:01.916Z,7.78
2022-09-23T19:01:50.128Z,6.50
2022-09-23T19:04:38.925Z,8.55
2022-09-23T19:07:25.917Z,7.85
2022-09-23T19:10:06.048Z,8.73
2022-09-23T19:12:52.936Z,8.02
2022-09-23T19:15:33.033Z,7.65
2022-09-23T19:18:19.889Z,9.18
2022-09-23T19:21:06.225Z,8.88
2022-09-23T19:24:02.914Z,9.00
2022-09-23T19:26:51.072Z,9.30
2022-09-23T19:29:31.911Z,10.68
2022-09-23T19:32:20.911Z,12.15
2022-09-23T19:35:01.133Z,12.25
2022-09-23T19:37:48.907Z,10.15
2022-09-23T19:40:31.860Z,10.73
2022-09-23T19:43:18.887Z,9.10
2022-09-23T19:46:02.969Z,9.52
2022-09-23T19:48:49.856Z,10.05
2022-09-23T19:51:36.874Z,9.38
2022-09-23T19:54:26.917Z,10.48
2022-09-23T19:57:06.978Z,10.00
2022-09-23T19:59:53.852Z,10.57
2022-09-23T20:02:34.069Z,10.02
2022-09-23T20:05:20.894Z,10.00
2022-09-23T20:08:02.066Z,10.93
2022-09-23T20:10:48.890Z,11.10
2022-09-23T20:13:35.862Z,10.85
2022-09-23T20:16:25.906Z,11.02
2022-09-23T20:19:07.046Z,10.95
2022-09-23T20:22:13.845Z,10.68
2022-09-23T20:24:53.932Z,10.02
2022-09-23T20:27:41.834Z,9.95
2022-09-23T20:30:21.965Z,11.10
2022-09-23T20:33:08.814Z,10.95
2022-09-23T20:35:48.893Z,13.75
2022-09-23T20:38:35.805Z,16.23
2022-09-23T20:41:22.760Z,18.83
2022-09-23T20:44:13.024Z,18.35
2022-09-23T20:47:00.848Z,18.52
2022-09-23T20:49:45.087Z,18.35
2022-09-23T20:52:31.829Z,18.40
2022-09-23T20:55:12.174Z,18.17
2022-09-23T20:58:01.806Z,18.02
2022-09-23T21:00:44.491Z,16.67
2022-09-23T21:03:32.806Z,16.58
2022-09-23T21:06:15.422Z,15.05
2022-09-23T21:09:01.779Z,14.57
2022-09-23T21:11:48.771Z,13.00
2022-09-23T21:14:28.897Z,13.45
2022-09-23T21:17:15.770Z,13.07
2022-09-23T21:20:02.766Z,13.25
2022-09-23T21:22:43.205Z,14.27
2022-09-23T21:25:30.715Z,17.65
2022-09-23T21:28:18.514Z,19.10
2022-09-23T21:31:00.106Z,21.77
2022-09-23T21:33:46.871Z,21.27
2022-09-23T21:36:27.710Z,17.88
2022-09-23T21:39:10.448Z,17.58
2022-09-23T21:41:57.738Z,16.08
2022-09-23T21:44:38.055Z,16.50
2022-09-23T21:47:24.724Z,16.75
2022-09-23T21:50:05.704Z,17.55
2022-09-23T21:52:52.669Z,16.67
2022-09-23T21:55:39.891Z,17.33
2022-09-23T21:58:20.719Z,15.93
2022-09-23T22:01:08.795Z,16.13
2022-09-23T22:03:49.892Z,15.02
2022-09-23T22:06:36.717Z,12.82
2022-09-23T22:09:25.767Z,13.15
2022-09-23T22:12:14.669Z,13.07
2022-09-23T22:14:54.801Z,12.75
2022-09-23T22:17:41.670Z,14.07
2022-09-23T22:20:28.671Z,12.57
2022-09-23T22:23:15.722Z,12.48
2022-09-23T22:25:59.430Z,13.60
2022-09-23T22:29:06.668Z,22.17
2022-09-23T22:32:11.689Z,27.13
2022-09-23T22:34:52.823Z,32.00
2022-09-23T22:37:45.673Z,32.20
2022-09-23T22:40:32.694Z,26.80
2022-09-23T22:43:19.645Z,23.75
2022-09-23T22:46:07.701Z,19.35
2022-09-23T22:48:54.633Z,20.88
2022-09-23T22:51:41.658Z,19.55
2022-09-23T22:54:22.248Z,16.10
2022-09-23T22:57:11.635Z,13.55
2022-09-23T22:59:59.634Z,15.02
2022-09-23T23:02:40.343Z,20.17
2022-09-23T23:05:26.615Z,20.98
2022-09-23T23:08:13.612Z,21.23
2022-09-23T23:10:55.026Z,23.60
2022-09-23T23:13:41.620Z,26.70
2022-09-23T23:16:25.309Z,29.27
2022-09-23T23:19:16.602Z,33.10
2022-09-23T23:22:04.602Z,35.83
2022-09-23T23:24:51.634Z,40.55
2022-09-23T23:27:38.616Z,46.03
2022-09-23T23:30:18.945Z,41.47
2022-09-23T23:33:05.590Z,40.33
2022-09-23T23:35:57.602Z,34.80
2022-09-23T23:38:38.040Z,30.67
2022-09-23T23:41:28.580Z,28.67
2022-09-23T23:44:08.778Z,28.33
2022-09-23T23:46:55.624Z,29.33
2022-09-23T23:49:35.651Z,34.78
2022-09-23T23:52:22.543Z,35.97
2022-09-23T23:55:02.968Z,35.53
2022-09-23T23:57:49.577Z,33.42
